Time;durP1;ratioP1;P1;durP2;ratioP2;P2;SDS_P1;SDS_P2;PMS_P1;PMS_P2;Temp;Humidity;BMP_temperature;BMP_pressure;BME280_temperature;BME280_humidity;BME280_pressure;Samples;Min_cycle;Max_cycle;Signal;HPM_P1;HPM_P2
2022/07/17 00:01:32;;;;;;;43.27;40.67;;;;;;;18.65;100.00;102561.41;2012032;71;30906;-70
2022/07/17 00:07:17;;;;;;;44.30;41.60;;;;;;;18.61;100.00;102563.73;2018618;71;32851;-70
2022/07/17 00:13:02;;;;;;;43.53;40.93;;;;;;;18.83;100.00;102566.84;2011062;71;30996;-70
2022/07/17 00:18:47;;;;;;;42.10;39.50;;;;;;;18.73;100.00;102580.21;1995356;71;30891;-70
2022/07/17 00:24:32;;;;;;;41.70;39.10;;;;;;;18.70;100.00;102577.41;2018426;71;30900;-70
2022/07/17 00:30:17;;;;;;;41.27;38.77;;;;;;;18.51;100.00;102580.13;2000352;71;30825;-70
2022/07/17 00:36:03;;;;;;;44.03;41.43;;;;;;;18.17;100.00;102590.57;1994767;71;30938;-70
2022/07/17 00:41:48;;;;;;;46.70;44.00;;;;;;;17.61;100.00;102583.95;2004495;71;31372;-70
2022/07/17 00:47:36;;;;;;;47.30;44.50;;;;;;;17.61;100.00;102589.58;1997171;71;32871;-70
2022/07/17 00:53:23;;;;;;;47.50;44.70;;;;;;;17.54;100.00;102578.35;2002293;71;31433;-70
2022/07/17 00:59:10;;;;;;;47.00;44.10;;;;;;;17.44;100.00;102577.84;2016728;71;33423;-70
2022/07/17 01:04:55;;;;;;;46.90;44.10;;;;;;;17.27;100.00;102579.62;2016561;71;32935;-70
2022/07/17 01:10:41;;;;;;;47.03;44.03;;;;;;;17.32;100.00;102570.88;2016340;71;32839;-70
2022/07/17 01:16:26;;;;;;;47.00;44.10;;;;;;;17.36;100.00;102580.41;2013216;71;32860;-70
2022/07/17 01:22:13;;;;;;;47.93;45.03;;;;;;;17.18;100.00;102581.34;1998750;71;33233;-70
2022/07/17 01:27:58;;;;;;;48.60;45.60;;;;;;;17.22;100.00;102574.58;1991439;71;33389;-70
2022/07/17 01:33:46;;;;;;;48.03;45.17;;;;;;;17.08;100.00;102571.55;1991593;71;33299;-70
2022/07/17 01:45:36;;;;;;;47.60;44.60;;;;;;;16.98;100.00;102574.41;2004474;71;33341;-70
2022/07/17 01:51:22;;;;;;;46.60;43.77;;;;;;;16.72;100.00;102574.21;2009963;71;32835;-70
2022/07/17 01:57:08;;;;;;;50.00;46.90;;;;;;;16.72;100.00;102571.41;1999949;71;32773;-70
2022/07/17 02:02:53;;;;;;;48.23;45.27;;;;;;;16.61;100.00;102555.70;2014939;71;32836;-70
2022/07/17 02:08:38;;;;;;;47.10;44.20;;;;;;;16.39;100.00;102560.20;2006470;71;33333;-70
2022/07/17 02:14:23;;;;;;;48.20;45.10;;;;;;;16.49;100.00;102563.00;2009718;71;32988;-70
2022/07/17 02:20:11;;;;;;;47.37;44.57;;;;;;;16.71;100.00;102566.35;2004117;71;32846;-70
2022/07/17 02:25:57;;;;;;;46.50;43.60;;;;;;;16.79;100.00;102571.94;2015149;71;32897;-70
2022/07/17 02:31:41;;;;;;;46.57;43.50;;;;;;;16.94;100.00;102584.53;2018051;71;32960;-70
2022/07/17 02:37:26;;;;;;;46.13;43.37;;;;;;;17.16;100.00;102577.97;2016528;71;32904;-69
2022/07/17 02:43:11;;;;;;;48.40;45.23;;;;;;;17.04;100.00;102569.03;2014682;71;31404;-70
2022/07/17 02:48:56;;;;;;;47.60;44.70;;;;;;;16.86;100.00;102562.64;2000940;71;32780;-70
2022/07/17 02:54:41;;;;;;;48.27;45.37;;;;;;;16.38;100.00;102576.77;2016727;71;32832;-70
2022/07/17 03:00:27;;;;;;;48.57;45.60;;;;;;;16.30;100.00;102563.32;2000091;71;32857;-70
2022/07/17 03:06:14;;;;;;;50.77;47.77;;;;;;;16.40;100.00;102555.72;2014866;71;32952;-70
2022/07/17 03:12:02;;;;;;;48.50;45.40;;;;;;;16.57;100.00;102555.44;2011516;71;32943;-70
2022/07/17 03:17:46;;;;;;;49.30;46.23;;;;;;;16.62;100.00;102564.41;2009876;71;32839;-70
2022/07/17 03:23:34;;;;;;;48.83;45.73;;;;;;;16.70;100.00;102556.80;2014873;71;32909;-70
2022/07/17 03:29:19;;;;;;;51.00;47.80;;;;;;;16.32;100.00;102577.89;2014717;71;32898;-70
2022/07/17 03:35:04;;;;;;;51.07;47.90;;;;;;;15.87;100.00;102581.55;2006304;71;33289;-70
2022/07/17 03:40:49;;;;;;;51.53;48.43;;;;;;;15.77;100.00;102586.57;2000236;71;32955;-70
2022/07/17 03:46:34;;;;;;;49.63;46.63;;;;;;;15.58;100.00;102585.95;2016542;71;32890;-70
2022/07/17 03:52:19;;;;;;;51.13;47.93;;;;;;;15.50;100.00;102581.74;2013068;71;32938;-70
2022/07/17 03:58:04;;;;;;;49.70;46.50;;;;;;;15.40;100.00;102583.09;2005627;71;32831;-70
2022/07/17 04:03:50;;;;;;;51.13;47.83;;;;;;;15.51;100.00;102588.19;1995255;71;33254;-70
2022/07/17 04:09:34;;;;;;;51.47;48.20;;;;;;;15.69;100.00;102582.07;2015161;71;32980;-70
2022/07/17 04:21:23;;;;;;;49.20;46.00;;;;;;;16.02;100.00;102573.13;2006178;71;32963;-70
2022/07/17 04:27:09;;;;;;;49.83;46.57;;;;;;;16.18;100.00;102565.55;2008079;71;32775;-70
2022/07/17 04:32:54;;;;;;;49.73;46.30;;;;;;;16.01;100.00;102570.05;2000121;71;32861;-70
2022/07/17 04:38:38;;;;;;;49.90;46.50;;;;;;;15.87;100.00;102574.54;2004263;71;32864;-70
2022/07/17 04:44:23;;;;;;;50.10;46.70;;;;;;;15.66;100.00;102583.45;1996951;71;32912;-70
2022/07/17 04:50:10;;;;;;;49.67;46.37;;;;;;;15.58;100.00;102575.59;2016554;71;32933;-70
2022/07/17 04:55:55;;;;;;;50.27;46.87;;;;;;;15.57;100.00;102573.94;2013139;71;33011;-70
2022/07/17 05:01:40;;;;;;;50.60;47.30;;;;;;;15.95;100.00;102573.98;1994734;71;32848;-70
2022/07/17 05:07:25;;;;;;;51.17;47.80;;;;;;;16.11;100.00;102574.26;2005650;71;32888;-70
2022/07/17 05:13:09;;;;;;;49.57;46.40;;;;;;;16.42;100.00;102572.28;2011713;71;32759;-70
2022/07/17 05:18:54;;;;;;;49.93;46.43;;;;;;;16.32;100.00;102575.08;2002609;71;33311;-71
2022/07/17 05:24:39;;;;;;;49.97;46.57;;;;;;;16.52;100.00;102581.22;2009846;71;32777;-70
2022/07/17 05:30:24;;;;;;;50.30;46.90;;;;;;;16.56;100.00;102589.37;2016593;71;33387;-70
2022/07/17 05:36:08;;;;;;;50.23;46.60;;;;;;;16.66;100.00;102584.59;2006346;71;33282;-71
2022/07/17 05:41:53;;;;;;;50.93;47.50;;;;;;;16.72;100.00;102582.63;2013379;71;32776;-70
2022/07/17 05:47:38;;;;;;;50.37;46.97;;;;;;;16.81;100.00;102577.53;2018530;71;32895;-69
2022/07/17 05:53:24;;;;;;;49.27;45.87;;;;;;;16.84;100.00;102578.94;2009859;71;32754;-69
2022/07/17 05:59:09;;;;;;;50.87;47.37;;;;;;;16.98;100.00;102575.81;1999998;71;32876;-67
2022/07/17 06:04:54;;;;;;;51.17;47.97;;;;;;;17.20;100.00;102579.66;2004354;71;32773;-67
2022/07/17 06:10:39;;;;;;;50.00;46.80;;;;;;;17.63;100.00;102573.80;2015060;71;32986;-67
2022/07/17 06:16:25;;;;;;;48.73;45.63;;;;;;;18.14;100.00;102573.70;2016754;71;32835;-67
2022/07/17 06:22:13;;;;;;;46.93;44.03;;;;;;;18.43;100.00;102575.14;2009283;71;33352;-67
2022/07/17 06:28:02;;;;;;;44.83;42.23;;;;;;;18.54;100.00;102565.48;2018299;71;32945;-67
2022/07/17 06:33:46;;;;;;;40.63;38.37;;;;;;;18.77;100.00;102563.83;2000664;71;32974;-68
2022/07/17 06:39:31;;;;;;;38.70;36.50;;;;;;;18.96;100.00;102556.27;2005450;71;32986;-67
2022/07/17 06:45:16;;;;;;;39.63;37.33;;;;;;;19.12;100.00;102556.93;2016676;71;30954;-67
2022/07/17 06:51:05;;;;;;;38.73;36.53;;;;;;;19.36;100.00;102559.13;1998515;71;30952;-67
2022/07/17 06:56:52;;;;;;;38.00;35.70;;;;;;;19.34;100.00;102555.76;2007122;71;30941;-67
2022/07/17 07:02:37;;;;;;;36.30;34.20;;;;;;;19.73;100.00;102563.12;2014977;71;30919;-65
2022/07/17 07:08:31;;;;;;;36.47;34.27;;;;;;;19.68;100.00;102568.27;2000753;71;30813;-71
2022/07/17 07:14:16;;;;;;;33.67;31.57;;;;;;;19.70;100.00;102574.45;1995232;71;30910;-68
2022/07/17 07:20:03;;;;;;;35.70;33.60;;;;;;;19.87;100.00;102569.10;1991094;71;30865;-68
2022/07/17 07:25:50;;;;;;;34.47;32.17;;;;;;;20.03;100.00;102582.37;2007701;71;30865;-68
2022/07/17 07:31:37;;;;;;;32.97;30.87;;;;;;;20.20;100.00;102593.09;1987186;71;31290;-68
2022/07/17 07:37:22;;;;;;;31.73;29.83;;;;;;;20.67;100.00;102601.31;1998546;71;30867;-68
2022/07/17 07:43:07;;;;;;;28.50;26.90;;;;;;;21.06;100.00;102589.53;2005797;71;30995;-68
2022/07/17 07:48:52;;;;;;;28.27;26.73;;;;;;;21.23;100.00;102598.24;2009420;71;30869;-71
2022/07/17 07:54:38;;;;;;;26.17;24.77;;;;;;;21.53;100.00;102600.98;2013551;71;31015;-70
2022/07/17 08:00:25;;;;;;;24.40;23.10;;;;;;;21.83;100.00;102595.77;2005993;71;31003;-69
2022/07/17 08:06:10;;;;;;;21.57;20.50;;;;;;;22.15;100.00;102591.34;2011691;71;30925;-70
2022/07/17 08:11:55;;;;;;;20.03;18.80;;;;;;;22.35;100.00;102584.30;2018635;71;30963;-70
2022/07/17 08:17:39;;;;;;;17.27;16.33;;;;;;;22.50;100.00;102597.51;2000748;71;32964;-69
2022/07/17 08:23:27;;;;;;;16.60;15.67;;;;;;;22.75;100.00;102597.42;1997015;71;30956;-70
2022/07/17 08:29:11;;;;;;;15.03;13.90;;;;;;;23.11;100.00;102588.14;2014908;71;31377;-70
2022/07/17 08:34:57;;;;;;;14.47;13.57;;;;;;;23.36;100.00;102595.05;2008002;71;31390;-72
2022/07/17 08:40:43;;;;;;;12.50;11.80;;;;;;;23.83;100.00;102579.13;2004700;71;30902;-71
2022/07/17 08:46:29;;;;;;;11.85;11.25;;;;;;;24.36;100.00;102578.79;2002638;71;30881;-71
2022/07/17 08:52:15;;;;;;;11.90;11.12;;;;;;;24.62;100.00;102575.88;2013231;71;30952;-70
2022/07/17 08:58:01;;;;;;;12.00;11.30;;;;;;;24.70;100.00;102564.23;2016678;71;30882;-71
2022/07/17 09:03:58;;;;;;;11.65;10.93;;;;;;;24.98;100.00;102560.40;2018594;71;30915;-71
2022/07/17 09:09:46;;;;;;;11.57;10.90;;;;;;;25.03;100.00;102550.26;1995012;71;30909;-72
2022/07/17 09:15:32;;;;;;;11.70;11.10;;;;;;;25.29;100.00;102553.76;2006187;71;30829;-72
2022/07/17 09:21:21;;;;;;;11.93;11.33;;;;;;;25.41;100.00;102556.72;2011390;71;30883;-72
2022/07/17 09:27:18;;;;;;;12.18;11.57;;;;;;;25.22;100.00;102558.59;2002507;71;30883;-69
2022/07/17 09:33:14;;;;;;;11.85;11.22;;;;;;;25.37;100.00;102560.02;1980048;72;30986;-72
2022/07/17 09:39:05;;;;;;;11.70;11.10;;;;;;;25.45;100.00;102555.44;2013563;71;30931;-71
2022/07/17 09:45:01;;;;;;;10.90;10.32;;;;;;;25.64;100.00;102555.81;1995195;71;30810;-71
2022/07/17 09:50:47;;;;;;;11.35;10.85;;;;;;;25.36;100.00;102550.64;2000350;71;31376;-71
2022/07/17 09:56:35;;;;;;;10.58;10.08;;;;;;;25.75;100.00;102544.27;2016723;71;30988;-71
2022/07/17 10:02:24;;;;;;;10.38;9.80;;;;;;;25.99;100.00;102547.22;2009591;70;31351;-72
2022/07/17 10:08:09;;;;;;;10.68;10.18;;;;;;;25.73;100.00;102539.50;2006483;71;30885;-71
2022/07/17 10:13:57;;;;;;;10.88;10.38;;;;;;;25.72;100.00;102540.09;2006440;71;30871;-71
2022/07/17 10:19:50;;;;;;;12.50;11.83;;;;;;;26.32;100.00;102537.86;2003796;71;31022;-71
2022/07/17 10:25:37;;;;;;;11.33;10.82;;;;;;;26.51;100.00;102538.16;2000518;71;31423;-71
2022/07/17 10:31:29;;;;;;;11.45;10.90;;;;;;;26.38;100.00;102530.77;1990840;71;30827;-72
2022/07/17 10:37:24;;;;;;;11.22;10.63;;;;;;;26.43;100.00;102534.83;2000319;71;31396;-71
2022/07/17 10:43:17;;;;;;;11.70;11.00;;;;;;;26.58;100.00;102522.14;2000172;71;30876;-71
2022/07/17 10:49:04;;;;;;;11.80;11.18;;;;;;;26.56;100.00;102531.66;2014840;71;30943;-71
2022/07/17 10:54:50;;;;;;;11.80;11.20;;;;;;;26.18;100.00;102527.61;2003715;71;31352;-71
2022/07/17 11:00:36;;;;;;;11.55;10.98;;;;;;;25.87;100.00;102508.73;2007681;71;30875;-71
2022/07/17 11:06:30;;;;;;;11.53;10.93;;;;;;;26.18;100.00;102499.71;1997391;71;30820;-71
2022/07/17 11:12:17;;;;;;;11.25;10.65;;;;;;;26.49;100.00;102480.67;2009616;71;31850;-71
2022/07/17 11:18:02;;;;;;;11.63;11.03;;;;;;;26.47;100.00;102487.33;2016724;71;30883;-71
2022/07/17 11:23:54;;;;;;;11.25;10.65;;;;;;;26.64;100.00;102479.40;2007021;71;32411;-72
2022/07/17 11:29:40;;;;;;;12.25;11.65;;;;;;;26.37;100.00;102477.22;1997039;71;30922;-72
2022/07/17 11:35:26;;;;;;;11.88;11.05;;;;;;;26.67;100.00;102462.99;2016656;71;30887;-71
2022/07/17 11:41:12;;;;;;;11.60;11.00;;;;;;;26.64;100.00;102458.02;2013145;71;31400;-71
2022/07/17 11:46:58;;;;;;;10.65;10.18;;;;;;;26.72;100.00;102451.36;2013102;71;30952;-71
2022/07/17 11:52:45;;;;;;;11.18;10.68;;;;;;;26.62;100.00;102453.84;2005891;71;30981;-71
2022/07/17 11:58:32;;;;;;;11.38;10.78;;;;;;;26.72;100.00;102443.39;2008121;71;30953;-69
2022/07/17 12:04:18;;;;;;;11.83;11.12;;;;;;;26.95;100.00;102434.63;1994683;71;30900;-72
2022/07/17 12:10:18;;;;;;;10.98;10.45;;;;;;;27.16;100.00;102425.91;2009504;71;31035;-71
2022/07/17 12:16:32;;;;;;;11.85;11.33;;;;;;;27.42;100.00;102411.20;2000358;71;30871;-71
2022/07/17 12:22:19;;;;;;;11.18;10.68;;;;;;;26.81;100.00;102414.16;2000881;71;31395;-69
2022/07/17 12:28:05;;;;;;;11.25;10.75;;;;;;;26.85;100.00;102422.27;2005677;71;30951;-71
2022/07/17 12:33:49;;;;;;;11.25;10.75;;;;;;;26.89;100.00;102413.23;2008323;71;30984;-71
2022/07/17 12:39:34;;;;;;;12.50;11.80;;;;;;;26.63;100.00;102402.77;2006155;71;30813;-71
2022/07/17 12:45:20;;;;;;;11.80;11.28;;;;;;;26.86;100.00;102403.97;2016733;71;30980;-71
2022/07/17 12:51:05;;;;;;;11.85;11.25;;;;;;;26.61;100.00;102398.03;1994853;71;30887;-71
2022/07/17 12:56:51;;;;;;;12.43;11.83;;;;;;;27.09;100.00;102392.26;2009572;71;30874;-71
2022/07/17 13:02:36;;;;;;;11.57;11.08;;;;;;;27.35;100.00;102393.25;2013130;71;30874;-69
2022/07/17 13:08:23;;;;;;;11.08;10.50;;;;;;;26.78;100.00;102392.67;2003962;71;30882;-71
2022/07/17 13:14:11;;;;;;;10.95;10.45;;;;;;;27.36;100.00;102392.06;2005807;71;30988;-71
2022/07/17 13:19:54;;;;;;;11.22;10.53;;;;;;;26.87;100.00;102397.05;2016620;71;30919;-69
2022/07/17 13:25:39;;;;;;;10.48;10.03;;;;;;;27.02;100.00;102382.66;2016642;71;31975;-71
2022/07/17 13:31:24;;;;;;;11.97;11.43;;;;;;;25.91;100.00;102375.02;2000921;71;30853;-71
2022/07/17 13:37:09;;;;;;;11.00;10.38;;;;;;;25.72;100.00;102374.97;2006004;71;30885;-71
2022/07/17 13:42:54;;;;;;;11.95;11.35;;;;;;;26.00;100.00;102365.79;2000761;71;30823;-70
2022/07/17 13:48:39;;;;;;;10.80;10.20;;;;;;;27.25;100.00;102347.29;2011253;71;31003;-71
2022/07/17 13:54:24;;;;;;;12.18;11.53;;;;;;;26.51;100.00;102353.73;2006341;71;31782;-71
2022/07/17 14:00:12;;;;;;;12.10;11.40;;;;;;;26.52;100.00;102348.28;2011825;71;31067;-71
2022/07/17 14:05:56;;;;;;;12.35;11.75;;;;;;;27.55;100.00;102335.76;2016774;71;30985;-71
2022/07/17 14:11:42;;;;;;;12.30;11.70;;;;;;;27.65;100.00;102326.64;2000546;71;30880;-71
2022/07/17 14:17:27;;;;;;;12.40;11.80;;;;;;;27.48;100.00;102324.95;2011371;71;31053;-71
2022/07/17 14:23:12;;;;;;;12.33;11.73;;;;;;;27.69;100.00;102306.15;2002443;71;30899;-71
2022/07/17 14:28:57;;;;;;;12.25;11.75;;;;;;;27.54;100.00;102319.82;2003737;70;32441;-71
2022/07/17 14:34:41;;;;;;;12.50;11.90;;;;;;;27.92;100.00;102310.64;2015260;71;30874;-69
2022/07/17 14:40:28;;;;;;;12.43;11.73;;;;;;;27.66;100.00;102309.75;2005142;71;30897;-71
2022/07/17 14:46:12;;;;;;;12.65;11.97;;;;;;;27.28;100.00;102306.60;2006343;71;30809;-71
2022/07/17 14:51:57;;;;;;;13.00;12.20;;;;;;;27.37;100.00;102292.41;1997241;71;31303;-71
2022/07/17 14:57:42;;;;;;;11.95;11.40;;;;;;;27.51;100.00;102283.45;2015107;71;30991;-69
2022/07/17 15:03:29;;;;;;;12.78;11.95;;;;;;;27.92;100.00;102296.36;2009943;71;30981;-69
2022/07/17 15:09:14;;;;;;;13.03;12.33;;;;;;;27.89;100.00;102283.66;2004025;71;31411;-69
2022/07/17 15:14:58;;;;;;;13.00;12.25;;;;;;;27.37;100.00;102291.58;2015031;71;31003;-71
2022/07/17 15:20:43;;;;;;;12.70;12.10;;;;;;;27.54;100.00;102288.41;2016637;71;31078;-71
2022/07/17 15:26:28;;;;;;;13.03;12.43;;;;;;;27.50;100.00;102282.61;1997092;71;31809;-69
2022/07/17 15:32:13;;;;;;;12.60;11.90;;;;;;;27.43;100.00;102282.37;1995210;71;30991;-71
2022/07/17 15:37:58;;;;;;;12.95;12.35;;;;;;;27.58;100.00;102287.91;1996898;71;30901;-69
2022/07/17 15:43:43;;;;;;;11.90;11.38;;;;;;;27.34;100.00;102280.91;2011263;71;30989;-69
2022/07/17 15:49:28;;;;;;;13.13;12.45;;;;;;;26.97;100.00;102280.22;2007662;71;31938;-71
2022/07/17 15:55:13;;;;;;;12.58;11.97;;;;;;;27.51;100.00;102272.03;2014991;71;30881;-71
2022/07/17 16:01:00;;;;;;;12.80;12.18;;;;;;;27.26;100.00;102262.72;2008635;71;30860;-69
2022/07/17 16:06:45;;;;;;;13.40;12.70;;;;;;;27.42;100.00;102256.47;1991534;71;31959;-71
2022/07/17 16:15:53;;;;;;;12.45;11.85;;;;;;;27.67;100.00;102249.19;2015041;71;31864;-71
2022/07/17 16:21:39;;;;;;;12.90;12.30;;;;;;;27.50;100.00;102250.37;2018480;71;30982;-71
2022/07/17 16:27:24;;;;;;;12.90;12.23;;;;;;;27.50;100.00;102246.94;2004373;71;30964;-69
2022/07/17 16:33:09;;;;;;;13.38;12.73;;;;;;;27.24;100.00;102248.60;1982021;72;31048;-69
2022/07/17 16:38:52;;;;;;;12.93;12.33;;;;;;;27.41;98.88;102240.53;2004040;71;31446;-71
2022/07/17 16:44:37;;;;;;;13.40;12.65;;;;;;;27.63;100.00;102233.99;2003802;71;30993;-69
2022/07/17 16:50:23;;;;;;;12.13;11.57;;;;;;;27.41;100.00;102236.84;1994856;71;31934;-69
2022/07/17 16:56:09;;;;;;;13.40;12.70;;;;;;;27.48;97.81;102224.21;2017105;71;31049;-71
2022/07/17 17:01:56;;;;;;;13.03;12.33;;;;;;;27.64;100.00;102214.25;1995205;71;30873;-69
2022/07/17 17:07:41;;;;;;;13.32;12.68;;;;;;;27.18;100.00;102218.07;2000808;71;31836;-69
2022/07/17 17:13:27;;;;;;;13.62;12.82;;;;;;;27.35;94.41;102204.05;2018475;71;30962;-72
2022/07/17 17:19:12;;;;;;;13.45;12.75;;;;;;;27.73;89.13;102198.55;2016898;71;31941;-71
2022/07/17 17:24:57;;;;;;;14.28;13.48;;;;;;;27.56;100.00;102201.79;2016709;71;30909;-69
2022/07/17 17:30:42;;;;;;;14.20;13.50;;;;;;;27.36;100.00;102206.55;1998990;71;30942;-69
2022/07/17 17:36:28;;;;;;;15.20;14.30;;;;;;;27.42;86.20;102205.69;2009543;71;31381;-69
2022/07/17 17:42:15;;;;;;;14.78;14.07;;;;;;;27.26;88.01;102197.69;2018645;71;31456;-71
2022/07/17 17:48:03;;;;;;;15.60;14.53;;;;;;;27.48;88.50;102192.81;2003975;71;31376;-72
2022/07/17 17:53:51;;;;;;;13.50;12.80;;;;;;;27.56;83.87;102191.80;2006454;71;31442;-69
2022/07/17 17:59:36;;;;;;;14.25;13.45;;;;;;;27.39;97.38;102191.54;2018447;71;30926;-69
2022/07/17 18:05:22;;;;;;;15.38;14.47;;;;;;;27.41;87.61;102200.58;1991528;71;30895;-72
2022/07/17 18:11:07;;;;;;;14.83;14.03;;;;;;;27.58;76.10;102197.39;2011122;71;30986;-71
2022/07/17 18:16:52;;;;;;;14.23;13.43;;;;;;;27.49;72.33;102198.16;2005782;71;32497;-71
2022/07/17 18:22:38;;;;;;;14.98;14.18;;;;;;;27.32;90.41;102208.48;2011190;71;31854;-72
2022/07/17 18:28:24;;;;;;;14.25;13.45;;;;;;;27.21;80.04;102203.09;2015410;71;31395;-70
2022/07/17 18:34:08;;;;;;;15.45;14.55;;;;;;;27.22;79.62;102202.47;2015048;71;31419;-71
2022/07/17 18:39:53;;;;;;;15.00;14.10;;;;;;;27.09;78.16;102201.72;2003959;71;31476;-71
2022/07/17 18:45:39;;;;;;;14.83;14.00;;;;;;;27.06;74.93;102201.03;2009788;71;30904;-69
2022/07/17 18:51:23;;;;;;;14.73;13.83;;;;;;;26.97;74.75;102191.80;2009322;71;31929;-69
2022/07/17 18:57:08;;;;;;;14.50;13.70;;;;;;;26.87;74.17;102195.20;1991520;71;31780;-69
2022/07/17 19:02:59;;;;;;;14.70;13.80;;;;;;;26.80;75.73;102182.95;1995188;71;30830;-71
2022/07/17 19:08:45;;;;;;;14.55;13.65;;;;;;;26.26;86.48;102183.40;2009606;71;31000;-71
2022/07/17 19:14:30;;;;;;;14.87;14.07;;;;;;;26.27;83.42;102189.93;2016734;71;30978;-72
2022/07/17 19:20:16;;;;;;;14.45;13.60;;;;;;;26.15;89.41;102184.20;2011455;71;31015;-71
2022/07/17 19:26:01;;;;;;;15.20;14.30;;;;;;;25.96;88.89;102185.44;2007998;71;31389;-71
2022/07/17 19:31:46;;;;;;;14.45;13.65;;;;;;;25.76;93.18;102190.89;2018630;71;31377;-72
2022/07/17 19:37:31;;;;;;;14.00;13.30;;;;;;;25.73;88.95;102191.61;2000312;71;30957;-72
2022/07/17 19:43:16;;;;;;;14.23;13.32;;;;;;;25.49;98.12;102198.69;2014764;71;30897;-72
2022/07/17 19:49:02;;;;;;;14.23;13.32;;;;;;;25.25;95.11;102199.47;2013111;71;30975;-71
2022/07/17 19:54:48;;;;;;;14.70;13.88;;;;;;;25.29;90.30;102205.28;1988181;71;33504;-71
2022/07/17 20:00:34;;;;;;;14.80;14.00;;;;;;;25.44;91.25;102205.20;2006269;71;30826;-69
2022/07/17 20:06:19;;;;;;;14.60;13.70;;;;;;;25.53;95.87;102206.79;2016470;71;30898;-70
2022/07/17 20:12:05;;;;;;;13.93;13.20;;;;;;;25.12;95.63;102212.59;1997107;71;31383;-69
2022/07/17 20:17:50;;;;;;;14.10;13.20;;;;;;;25.19;96.82;102218.55;2005706;71;30887;-70
2022/07/17 20:23:35;;;;;;;14.20;13.40;;;;;;;25.24;96.08;102218.33;2007623;71;30882;-71
2022/07/17 20:29:20;;;;;;;14.30;13.50;;;;;;;24.60;99.99;102233.56;2013223;71;30983;-71
2022/07/17 20:35:08;;;;;;;14.78;13.80;;;;;;;23.94;100.00;102221.97;2003618;71;30893;-70
2022/07/17 20:40:54;;;;;;;14.23;13.43;;;;;;;24.65;100.00;102228.48;2016655;71;30887;-70
2022/07/17 20:46:39;;;;;;;14.38;13.48;;;;;;;24.47;100.00;102230.63;2000663;71;30829;-71
2022/07/17 20:52:24;;;;;;;14.20;13.32;;;;;;;24.48;100.00;102229.46;2006092;71;30929;-70
2022/07/17 20:58:12;;;;;;;15.10;13.98;;;;;;;23.92;100.00;102233.65;2009952;71;33290;-68
2022/07/17 21:03:58;;;;;;;13.85;13.05;;;;;;;22.71;100.00;102236.59;2014932;71;30977;-70
2022/07/17 21:09:46;;;;;;;13.70;12.90;;;;;;;22.31;100.00;102233.61;1998960;71;30915;-71
2022/07/17 21:15:31;;;;;;;13.93;13.10;;;;;;;22.14;100.00;102224.52;2011661;71;30824;-69
2022/07/17 21:21:16;;;;;;;14.07;13.27;;;;;;;22.51;100.00;102209.72;2000865;71;31331;-71
2022/07/17 21:27:01;;;;;;;13.97;13.10;;;;;;;22.60;100.00;102206.30;1993321;71;30960;-74
2022/07/17 21:32:49;;;;;;;13.83;12.93;;;;;;;22.75;100.00;102203.59;1997154;71;31432;-71
2022/07/17 21:38:35;;;;;;;14.17;13.17;;;;;;;23.00;100.00;102198.45;2002066;71;31076;-73
2022/07/17 21:44:21;;;;;;;14.00;13.20;;;;;;;22.51;100.00;102206.05;2000207;71;31420;-71
2022/07/17 21:50:09;;;;;;;14.28;13.35;;;;;;;22.37;100.00;102204.82;2002352;71;30827;-73
2022/07/17 21:55:54;;;;;;;14.75;13.85;;;;;;;22.27;100.00;102211.38;2012994;71;30930;-70
2022/07/17 22:01:41;;;;;;;13.30;12.53;;;;;;;22.26;100.00;102216.20;1995249;71;31354;-73
2022/07/17 22:07:28;;;;;;;14.03;13.13;;;;;;;22.26;100.00;102214.78;2002416;71;31009;-73
2022/07/17 22:13:15;;;;;;;15.00;14.10;;;;;;;22.32;100.00;102222.55;2014876;71;30883;-74
2022/07/17 22:19:01;;;;;;;13.68;12.88;;;;;;;22.34;100.00;102244.27;1995123;71;31370;-70
2022/07/17 22:24:47;;;;;;;15.37;13.90;;;;;;;22.47;100.00;102096.86;2000800;71;30830;-72
2022/07/17 22:30:36;;;;;;;16.43;15.33;;;;;;;22.13;100.00;102217.17;2000818;71;30891;-73
2022/07/17 22:36:22;;;;;;;18.60;17.50;;;;;;;22.05;100.00;102199.03;2016747;71;30947;-71
2022/07/17 22:42:08;;;;;;;19.33;18.07;;;;;;;21.61;100.00;102216.16;2013157;71;30950;-73
2022/07/17 22:47:53;;;;;;;23.57;22.23;;;;;;;21.10;100.00;102196.93;2011226;71;31410;-73
2022/07/17 22:53:40;;;;;;;26.90;25.23;;;;;;;21.04;100.00;102195.41;2011313;71;31476;-73
2022/07/17 22:59:25;;;;;;;29.23;27.37;;;;;;;21.02;100.00;102185.00;2000455;71;30802;-73
2022/07/17 23:05:14;;;;;;;30.70;28.67;;;;;;;20.42;100.00;102195.29;1998611;71;31327;-73
2022/07/17 23:11:01;;;;;;;29.37;27.57;;;;;;;20.08;100.00;102193.53;2006827;71;33397;-73
2022/07/17 23:16:46;;;;;;;25.50;23.90;;;;;;;20.51;100.00;102180.67;2004323;71;30921;-72
2022/07/17 23:22:31;;;;;;;29.20;27.50;;;;;;;20.27;100.00;102176.72;1994807;71;31034;-73
2022/07/17 23:28:16;;;;;;;30.97;29.07;;;;;;;20.05;100.00;102167.38;2002804;71;30959;-73
2022/07/17 23:34:01;;;;;;;31.77;29.67;;;;;;;20.55;100.00;102152.05;2009972;71;31359;-73
2022/07/17 23:39:46;;;;;;;33.57;31.37;;;;;;;20.53;100.00;102146.48;2016646;71;30868;-73
2022/07/17 23:45:34;;;;;;;33.07;30.80;;;;;;;20.67;100.00;102138.19;1994895;70;30879;-73
2022/07/17 23:51:19;;;;;;;34.13;31.87;;;;;;;20.51;100.00;102150.19;2011658;71;30898;-73
2022/07/17 23:57:04;;;;;;;37.87;35.37;;;;;;;20.59;100.00;102161.55;2016723;71;31437;-73
